sensor_id;sensor_type;location;lat;lon;timestamp;P1;durP1;ratioP1;P2;durP2;ratioP2
6133;SDS011;3098;42.678;23.364;2023-04-30T00:01:26;23.30;;;9.52;;
6133;SDS011;3098;42.678;23.364;2023-04-30T00:03:54;20.25;;;9.13;;
6133;SDS011;3098;42.678;23.364;2023-04-30T00:06:21;22.88;;;9.10;;
6133;SDS011;3098;42.678;23.364;2023-04-30T00:08:48;22.67;;;8.55;;
6133;SDS011;3098;42.678;23.364;2023-04-30T00:11:15;14.05;;;7.30;;
6133;SDS011;3098;42.678;23.364;2023-04-30T00:13:42;17.45;;;8.60;;
6133;SDS011;3098;42.678;23.364;2023-04-30T00:16:09;15.38;;;7.93;;
6133;SDS011;3098;42.678;23.364;2023-04-30T00:18:38;13.77;;;7.82;;
6133;SDS011;3098;42.678;23.364;2023-04-30T00:21:05;18.15;;;7.30;;
6133;SDS011;3098;42.678;23.364;2023-04-30T00:23:32;13.98;;;6.95;;
6133;SDS011;3098;42.678;23.364;2023-04-30T00:25:59;12.32;;;6.72;;
6133;SDS011;3098;42.678;23.364;2023-04-30T00:28:26;12.27;;;6.10;;
6133;SDS011;3098;42.678;23.364;2023-04-30T00:30:53;13.20;;;6.50;;
6133;SDS011;3098;42.678;23.364;2023-04-30T00:33:20;16.50;;;6.93;;
6133;SDS011;3098;42.678;23.364;2023-04-30T00:35:52;14.82;;;7.45;;
6133;SDS011;3098;42.678;23.364;2023-04-30T00:38:19;12.82;;;6.80;;
6133;SDS011;3098;42.678;23.364;2023-04-30T00:40:46;22.52;;;7.25;;
6133;SDS011;3098;42.678;23.364;2023-04-30T00:43:13;14.15;;;6.35;;
6133;SDS011;3098;42.678;23.364;2023-04-30T00:45:40;12.40;;;6.72;;
6133;SDS011;3098;42.678;23.364;2023-04-30T00:48:07;13.75;;;6.63;;
6133;SDS011;3098;42.678;23.364;2023-04-30T00:50:35;15.23;;;6.35;;
6133;SDS011;3098;42.678;23.364;2023-04-30T00:53:04;14.48;;;6.88;;
6133;SDS011;3098;42.678;23.364;2023-04-30T00:55:32;17.35;;;6.95;;
6133;SDS011;3098;42.678;23.364;2023-04-30T00:57:59;15.68;;;6.10;;
6133;SDS011;3098;42.678;23.364;2023-04-30T01:00:26;13.07;;;6.90;;
6133;SDS011;3098;42.678;23.364;2023-04-30T01:02:54;12.73;;;7.13;;
6133;SDS011;3098;42.678;23.364;2023-04-30T01:05:21;20.30;;;8.18;;
6133;SDS011;3098;42.678;23.364;2023-04-30T01:07:50;17.52;;;7.38;;
6133;SDS011;3098;42.678;23.364;2023-04-30T01:10:19;15.07;;;7.53;;
6133;SDS011;3098;42.678;23.364;2023-04-30T01:12:50;13.32;;;6.80;;
6133;SDS011;3098;42.678;23.364;2023-04-30T01:15:24;21.33;;;7.60;;
6133;SDS011;3098;42.678;23.364;2023-04-30T01:17:58;18.67;;;7.13;;
6133;SDS011;3098;42.678;23.364;2023-04-30T01:20:29;15.25;;;7.78;;
6133;SDS011;3098;42.678;23.364;2023-04-30T01:23:01;17.55;;;7.57;;
6133;SDS011;3098;42.678;23.364;2023-04-30T01:25:49;14.10;;;7.93;;
6133;SDS011;3098;42.678;23.364;2023-04-30T01:28:27;21.67;;;7.05;;
6133;SDS011;3098;42.678;23.364;2023-04-30T01:30:54;14.77;;;7.85;;
6133;SDS011;3098;42.678;23.364;2023-04-30T01:33:21;17.23;;;7.78;;
6133;SDS011;3098;42.678;23.364;2023-04-30T01:35:55;13.52;;;7.57;;
6133;SDS011;3098;42.678;23.364;2023-04-30T01:38:32;19.50;;;7.85;;
6133;SDS011;3098;42.678;23.364;2023-04-30T01:41:13;16.33;;;8.05;;
6133;SDS011;3098;42.678;23.364;2023-04-30T01:43:49;16.05;;;7.28;;
6133;SDS011;3098;42.678;23.364;2023-04-30T01:46:24;13.95;;;7.65;;
6133;SDS011;3098;42.678;23.364;2023-04-30T01:48:56;15.82;;;7.72;;
6133;SDS011;3098;42.678;23.364;2023-04-30T01:51:34;17.60;;;8.30;;
6133;SDS011;3098;42.678;23.364;2023-04-30T01:54:08;20.80;;;10.10;;
6133;SDS011;3098;42.678;23.364;2023-04-30T01:56:43;27.15;;;12.75;;
6133;SDS011;3098;42.678;23.364;2023-04-30T01:59:24;29.73;;;12.52;;
6133;SDS011;3098;42.678;23.364;2023-04-30T02:01:52;26.05;;;12.00;;
6133;SDS011;3098;42.678;23.364;2023-04-30T02:04:19;17.38;;;10.45;;
6133;SDS011;3098;42.678;23.364;2023-04-30T02:06:46;21.70;;;9.52;;
6133;SDS011;3098;42.678;23.364;2023-04-30T02:09:13;19.20;;;9.45;;
6133;SDS011;3098;42.678;23.364;2023-04-30T02:11:40;18.45;;;9.15;;
6133;SDS011;3098;42.678;23.364;2023-04-30T02:14:07;17.67;;;9.63;;
6133;SDS011;3098;42.678;23.364;2023-04-30T02:16:35;15.25;;;9.45;;
6133;SDS011;3098;42.678;23.364;2023-04-30T02:19:02;20.80;;;10.32;;
6133;SDS011;3098;42.678;23.364;2023-04-30T02:21:30;15.82;;;8.63;;
6133;SDS011;3098;42.678;23.364;2023-04-30T02:23:57;19.30;;;9.13;;
6133;SDS011;3098;42.678;23.364;2023-04-30T02:26:24;22.15;;;9.95;;
6133;SDS011;3098;42.678;23.364;2023-04-30T02:28:51;18.77;;;8.70;;
6133;SDS011;3098;42.678;23.364;2023-04-30T02:31:18;19.65;;;9.27;;
6133;SDS011;3098;42.678;23.364;2023-04-30T02:33:47;16.92;;;9.23;;
6133;SDS011;3098;42.678;23.364;2023-04-30T02:36:14;17.70;;;9.05;;
6133;SDS011;3098;42.678;23.364;2023-04-30T02:38:41;21.30;;;9.18;;
6133;SDS011;3098;42.678;23.364;2023-04-30T02:41:08;18.45;;;8.30;;
6133;SDS011;3098;42.678;23.364;2023-04-30T02:43:35;18.92;;;9.38;;
6133;SDS011;3098;42.678;23.364;2023-04-30T02:46:02;24.58;;;8.75;;
6133;SDS011;3098;42.678;23.364;2023-04-30T02:48:29;21.65;;;8.75;;
6133;SDS011;3098;42.678;23.364;2023-04-30T02:50:58;23.08;;;8.85;;
6133;SDS011;3098;42.678;23.364;2023-04-30T02:53:25;26.70;;;8.82;;
6133;SDS011;3098;42.678;23.364;2023-04-30T02:55:52;19.23;;;9.18;;
6133;SDS011;3098;42.678;23.364;2023-04-30T02:58:19;16.83;;;8.05;;
6133;SDS011;3098;42.678;23.364;2023-04-30T03:00:46;17.10;;;7.80;;
6133;SDS011;3098;42.678;23.364;2023-04-30T03:03:13;21.83;;;7.80;;
6133;SDS011;3098;42.678;23.364;2023-04-30T03:05:40;25.13;;;8.15;;
6133;SDS011;3098;42.678;23.364;2023-04-30T03:08:09;18.38;;;7.72;;
6133;SDS011;3098;42.678;23.364;2023-04-30T03:10:35;12.93;;;7.60;;
6133;SDS011;3098;42.678;23.364;2023-04-30T03:13:02;14.10;;;7.78;;
6133;SDS011;3098;42.678;23.364;2023-04-30T03:15:31;13.98;;;7.25;;
6133;SDS011;3098;42.678;23.364;2023-04-30T03:17:58;18.25;;;7.93;;
6133;SDS011;3098;42.678;23.364;2023-04-30T03:20:25;13.52;;;7.47;;
6133;SDS011;3098;42.678;23.364;2023-04-30T03:22:52;12.93;;;6.90;;
6133;SDS011;3098;42.678;23.364;2023-04-30T03:25:21;16.15;;;6.95;;
6133;SDS011;3098;42.678;23.364;2023-04-30T03:27:48;17.35;;;8.00;;
6133;SDS011;3098;42.678;23.364;2023-04-30T03:30:15;13.52;;;7.70;;
6133;SDS011;3098;42.678;23.364;2023-04-30T03:32:42;18.10;;;7.50;;
6133;SDS011;3098;42.678;23.364;2023-04-30T03:35:10;12.43;;;6.72;;
6133;SDS011;3098;42.678;23.364;2023-04-30T03:37:37;20.65;;;7.15;;
6133;SDS011;3098;42.678;23.364;2023-04-30T03:40:04;15.82;;;6.88;;
6133;SDS011;3098;42.678;23.364;2023-04-30T03:42:34;13.80;;;7.38;;
6133;SDS011;3098;42.678;23.364;2023-04-30T03:45:00;13.88;;;7.25;;
6133;SDS011;3098;42.678;23.364;2023-04-30T03:47:28;15.45;;;7.63;;
6133;SDS011;3098;42.678;23.364;2023-04-30T03:49:55;13.25;;;7.22;;
6133;SDS011;3098;42.678;23.364;2023-04-30T03:52:22;19.35;;;8.43;;
6133;SDS011;3098;42.678;23.364;2023-04-30T03:54:50;17.55;;;8.10;;
6133;SDS011;3098;42.678;23.364;2023-04-30T03:57:17;15.13;;;8.07;;
6133;SDS011;3098;42.678;23.364;2023-04-30T03:59:46;17.20;;;7.80;;
6133;SDS011;3098;42.678;23.364;2023-04-30T04:02:14;23.70;;;8.38;;
6133;SDS011;3098;42.678;23.364;2023-04-30T04:04:41;15.77;;;7.15;;
6133;SDS011;3098;42.678;23.364;2023-04-30T04:07:09;19.63;;;7.78;;
6133;SDS011;3098;42.678;23.364;2023-04-30T04:09:37;19.42;;;8.63;;
6133;SDS011;3098;42.678;23.364;2023-04-30T04:12:04;17.75;;;8.25;;
6133;SDS011;3098;42.678;23.364;2023-04-30T04:14:32;15.15;;;7.43;;
6133;SDS011;3098;42.678;23.364;2023-04-30T04:17:00;14.07;;;7.65;;
6133;SDS011;3098;42.678;23.364;2023-04-30T04:19:29;18.50;;;8.32;;
6133;SDS011;3098;42.678;23.364;2023-04-30T04:21:57;22.45;;;8.80;;
6133;SDS011;3098;42.678;23.364;2023-04-30T04:24:24;22.25;;;8.50;;
6133;SDS011;3098;42.678;23.364;2023-04-30T04:26:52;15.43;;;8.23;;
6133;SDS011;3098;42.678;23.364;2023-04-30T04:29:20;18.73;;;9.50;;
6133;SDS011;3098;42.678;23.364;2023-04-30T04:31:47;21.80;;;9.88;;
6133;SDS011;3098;42.678;23.364;2023-04-30T04:34:16;24.17;;;9.45;;
6133;SDS011;3098;42.678;23.364;2023-04-30T04:36:44;24.42;;;9.88;;
6133;SDS011;3098;42.678;23.364;2023-04-30T04:39:12;18.58;;;8.95;;
6133;SDS011;3098;42.678;23.364;2023-04-30T04:41:39;20.02;;;9.55;;
6133;SDS011;3098;42.678;23.364;2023-04-30T04:44:06;24.30;;;9.88;;
6133;SDS011;3098;42.678;23.364;2023-04-30T04:46:33;21.23;;;10.40;;
6133;SDS011;3098;42.678;23.364;2023-04-30T04:49:02;17.45;;;9.48;;
6133;SDS011;3098;42.678;23.364;2023-04-30T04:51:31;21.75;;;8.38;;
6133;SDS011;3098;42.678;23.364;2023-04-30T04:53:59;16.67;;;8.35;;
6133;SDS011;3098;42.678;23.364;2023-04-30T04:56:26;18.33;;;8.63;;
6133;SDS011;3098;42.678;23.364;2023-04-30T04:58:53;16.85;;;8.40;;
6133;SDS011;3098;42.678;23.364;2023-04-30T05:01:21;18.25;;;8.93;;
6133;SDS011;3098;42.678;23.364;2023-04-30T05:03:49;20.42;;;9.70;;
6133;SDS011;3098;42.678;23.364;2023-04-30T05:06:17;20.92;;;9.43;;
6133;SDS011;3098;42.678;23.364;2023-04-30T05:08:46;20.33;;;9.60;;
6133;SDS011;3098;42.678;23.364;2023-04-30T05:11:13;21.27;;;9.35;;
6133;SDS011;3098;42.678;23.364;2023-04-30T05:13:41;13.85;;;7.50;;
6133;SDS011;3098;42.678;23.364;2023-04-30T05:16:08;21.95;;;8.35;;
6133;SDS011;3098;42.678;23.364;2023-04-30T05:18:35;15.25;;;7.50;;
6133;SDS011;3098;42.678;23.364;2023-04-30T05:21:02;19.80;;;6.93;;
6133;SDS011;3098;42.678;23.364;2023-04-30T05:23:30;20.35;;;9.57;;
6133;SDS011;3098;42.678;23.364;2023-04-30T05:25:58;20.23;;;10.25;;
6133;SDS011;3098;42.678;23.364;2023-04-30T05:28:26;17.45;;;9.93;;
6133;SDS011;3098;42.678;23.364;2023-04-30T05:30:53;24.17;;;9.88;;
6133;SDS011;3098;42.678;23.364;2023-04-30T05:33:20;24.35;;;11.20;;
6133;SDS011;3098;42.678;23.364;2023-04-30T05:35:47;22.02;;;10.75;;
6133;SDS011;3098;42.678;23.364;2023-04-30T05:38:14;22.35;;;11.20;;
6133;SDS011;3098;42.678;23.364;2023-04-30T05:40:40;23.90;;;10.77;;
6133;SDS011;3098;42.678;23.364;2023-04-30T05:43:09;22.73;;;10.63;;
6133;SDS011;3098;42.678;23.364;2023-04-30T05:45:36;18.95;;;9.80;;
6133;SDS011;3098;42.678;23.364;2023-04-30T05:48:03;18.77;;;10.27;;
6133;SDS011;3098;42.678;23.364;2023-04-30T05:50:31;29.52;;;11.23;;
6133;SDS011;3098;42.678;23.364;2023-04-30T05:52:58;26.23;;;11.05;;
6133;SDS011;3098;42.678;23.364;2023-04-30T05:55:25;22.48;;;9.70;;
6133;SDS011;3098;42.678;23.364;2023-04-30T05:57:52;24.17;;;10.30;;
6133;SDS011;3098;42.678;23.364;2023-04-30T06:00:20;19.40;;;10.07;;
6133;SDS011;3098;42.678;23.364;2023-04-30T06:02:48;22.70;;;10.80;;
6133;SDS011;3098;42.678;23.364;2023-04-30T06:05:15;26.17;;;11.30;;
6133;SDS011;3098;42.678;23.364;2023-04-30T06:07:42;20.80;;;10.38;;
6133;SDS011;3098;42.678;23.364;2023-04-30T06:10:09;26.13;;;11.60;;
6133;SDS011;3098;42.678;23.364;2023-04-30T06:12:37;26.85;;;11.70;;
6133;SDS011;3098;42.678;23.364;2023-04-30T06:15:05;24.42;;;11.07;;
6133;SDS011;3098;42.678;23.364;2023-04-30T06:17:34;25.73;;;11.30;;
6133;SDS011;3098;42.678;23.364;2023-04-30T06:20:01;21.85;;;10.13;;
6133;SDS011;3098;42.678;23.364;2023-04-30T06:22:31;20.52;;;10.23;;
6133;SDS011;3098;42.678;23.364;2023-04-30T06:24:58;21.00;;;9.88;;
6133;SDS011;3098;42.678;23.364;2023-04-30T06:27:25;25.10;;;10.80;;
6133;SDS011;3098;42.678;23.364;2023-04-30T06:29:52;23.38;;;10.00;;
6133;SDS011;3098;42.678;23.364;2023-04-30T06:32:20;19.00;;;10.55;;
6133;SDS011;3098;42.678;23.364;2023-04-30T06:34:49;21.20;;;9.50;;
6133;SDS011;3098;42.678;23.364;2023-04-30T06:37:16;18.85;;;9.35;;
6133;SDS011;3098;42.678;23.364;2023-04-30T06:39:43;20.00;;;9.52;;
6133;SDS011;3098;42.678;23.364;2023-04-30T06:42:10;20.05;;;9.27;;
6133;SDS011;3098;42.678;23.364;2023-04-30T06:44:38;18.92;;;10.02;;
6133;SDS011;3098;42.678;23.364;2023-04-30T06:47:06;20.90;;;10.60;;
6133;SDS011;3098;42.678;23.364;2023-04-30T06:49:33;19.67;;;9.85;;
6133;SDS011;3098;42.678;23.364;2023-04-30T06:52:02;18.92;;;9.38;;
6133;SDS011;3098;42.678;23.364;2023-04-30T06:54:30;16.08;;;8.07;;
6133;SDS011;3098;42.678;23.364;2023-04-30T06:56:58;15.15;;;8.82;;
6133;SDS011;3098;42.678;23.364;2023-04-30T06:59:26;22.17;;;9.82;;
6133;SDS011;3098;42.678;23.364;2023-04-30T07:01:54;15.60;;;7.95;;
6133;SDS011;3098;42.678;23.364;2023-04-30T07:04:23;17.98;;;8.75;;
6133;SDS011;3098;42.678;23.364;2023-04-30T07:06:50;21.73;;;9.25;;
6133;SDS011;3098;42.678;23.364;2023-04-30T07:09:19;15.10;;;8.63;;
6133;SDS011;3098;42.678;23.364;2023-04-30T07:11:46;20.25;;;8.07;;
6133;SDS011;3098;42.678;23.364;2023-04-30T07:14:14;17.92;;;8.00;;
6133;SDS011;3098;42.678;23.364;2023-04-30T07:16:43;25.75;;;12.38;;
6133;SDS011;3098;42.678;23.364;2023-04-30T07:19:11;17.02;;;8.70;;
6133;SDS011;3098;42.678;23.364;2023-04-30T07:21:38;20.30;;;9.07;;
6133;SDS011;3098;42.678;23.364;2023-04-30T07:24:06;20.55;;;7.97;;
6133;SDS011;3098;42.678;23.364;2023-04-30T07:26:35;12.80;;;7.45;;
6133;SDS011;3098;42.678;23.364;2023-04-30T07:29:03;12.70;;;7.60;;
6133;SDS011;3098;42.678;23.364;2023-04-30T07:31:30;23.80;;;7.97;;
6133;SDS011;3098;42.678;23.364;2023-04-30T07:33:57;21.60;;;8.65;;
6133;SDS011;3098;42.678;23.364;2023-04-30T07:36:24;17.00;;;8.50;;
6133;SDS011;3098;42.678;23.364;2023-04-30T07:38:53;17.30;;;8.38;;
6133;SDS011;3098;42.678;23.364;2023-04-30T07:41:23;20.00;;;8.93;;
6133;SDS011;3098;42.678;23.364;2023-04-30T07:43:52;16.17;;;8.32;;
6133;SDS011;3098;42.678;23.364;2023-04-30T07:46:20;18.75;;;9.63;;
6133;SDS011;3098;42.678;23.364;2023-04-30T07:48:48;18.70;;;8.02;;
6133;SDS011;3098;42.678;23.364;2023-04-30T07:51:15;13.63;;;7.40;;
6133;SDS011;3098;42.678;23.364;2023-04-30T07:53:43;23.02;;;9.20;;
6133;SDS011;3098;42.678;23.364;2023-04-30T07:56:11;16.98;;;7.80;;
6133;SDS011;3098;42.678;23.364;2023-04-30T07:58:38;12.23;;;7.28;;
6133;SDS011;3098;42.678;23.364;2023-04-30T08:01:07;12.60;;;7.00;;
6133;SDS011;3098;42.678;23.364;2023-04-30T08:03:34;14.63;;;8.07;;
6133;SDS011;3098;42.678;23.364;2023-04-30T08:06:02;16.52;;;7.15;;
6133;SDS011;3098;42.678;23.364;2023-04-30T08:08:30;14.15;;;6.05;;
6133;SDS011;3098;42.678;23.364;2023-04-30T08:11:06;15.35;;;6.35;;
6133;SDS011;3098;42.678;23.364;2023-04-30T08:13:35;10.60;;;5.65;;
6133;SDS011;3098;42.678;23.364;2023-04-30T08:16:03;10.77;;;5.38;;
6133;SDS011;3098;42.678;23.364;2023-04-30T08:18:32;10.43;;;5.28;;
6133;SDS011;3098;42.678;23.364;2023-04-30T08:21:01;11.60;;;4.85;;
6133;SDS011;3098;42.678;23.364;2023-04-30T08:23:29;12.65;;;5.07;;
6133;SDS011;3098;42.678;23.364;2023-04-30T08:25:56;7.82;;;4.50;;
6133;SDS011;3098;42.678;23.364;2023-04-30T08:28:24;8.23;;;4.55;;
6133;SDS011;3098;42.678;23.364;2023-04-30T08:30:51;9.50;;;4.63;;
6133;SDS011;3098;42.678;23.364;2023-04-30T08:33:18;11.65;;;4.63;;
6133;SDS011;3098;42.678;23.364;2023-04-30T08:35:47;8.68;;;4.45;;
6133;SDS011;3098;42.678;23.364;2023-04-30T08:38:15;8.75;;;4.57;;
6133;SDS011;3098;42.678;23.364;2023-04-30T08:40:44;9.95;;;4.03;;
6133;SDS011;3098;42.678;23.364;2023-04-30T08:43:19;7.25;;;4.53;;
6133;SDS011;3098;42.678;23.364;2023-04-30T08:45:47;10.50;;;3.83;;
6133;SDS011;3098;42.678;23.364;2023-04-30T08:48:16;8.27;;;3.88;;
6133;SDS011;3098;42.678;23.364;2023-04-30T08:50:48;7.80;;;4.25;;
6133;SDS011;3098;42.678;23.364;2023-04-30T08:53:15;8.45;;;4.07;;
6133;SDS011;3098;42.678;23.364;2023-04-30T08:55:45;8.48;;;3.92;;
6133;SDS011;3098;42.678;23.364;2023-04-30T08:58:13;10.57;;;4.47;;
6133;SDS011;3098;42.678;23.364;2023-04-30T09:00:40;6.78;;;4.40;;
6133;SDS011;3098;42.678;23.364;2023-04-30T09:03:07;9.27;;;4.20;;
6133;SDS011;3098;42.678;23.364;2023-04-30T09:05:35;9.57;;;4.13;;
6133;SDS011;3098;42.678;23.364;2023-04-30T09:08:07;5.68;;;3.70;;
6133;SDS011;3098;42.678;23.364;2023-04-30T09:10:35;8.68;;;3.60;;
6133;SDS011;3098;42.678;23.364;2023-04-30T09:13:04;8.30;;;4.25;;
6133;SDS011;3098;42.678;23.364;2023-04-30T09:15:34;9.63;;;4.13;;
6133;SDS011;3098;42.678;23.364;2023-04-30T09:18:10;5.18;;;3.40;;
6133;SDS011;3098;42.678;23.364;2023-04-30T09:20:54;7.80;;;3.67;;
6133;SDS011;3098;42.678;23.364;2023-04-30T09:23:24;6.72;;;3.25;;
6133;SDS011;3098;42.678;23.364;2023-04-30T09:25:51;7.55;;;3.78;;
6133;SDS011;3098;42.678;23.364;2023-04-30T09:28:20;6.65;;;3.90;;
6133;SDS011;3098;42.678;23.364;2023-04-30T09:30:51;9.10;;;3.65;;
6133;SDS011;3098;42.678;23.364;2023-04-30T09:33:21;7.25;;;4.40;;
6133;SDS011;3098;42.678;23.364;2023-04-30T09:35:49;5.53;;;3.42;;
6133;SDS011;3098;42.678;23.364;2023-04-30T09:38:28;5.97;;;4.10;;
6133;SDS011;3098;42.678;23.364;2023-04-30T09:40:56;6.68;;;3.90;;
6133;SDS011;3098;42.678;23.364;2023-04-30T09:43:26;5.25;;;3.70;;
6133;SDS011;3098;42.678;23.364;2023-04-30T09:45:56;7.78;;;4.05;;
6133;SDS011;3098;42.678;23.364;2023-04-30T09:48:24;6.00;;;3.63;;
6133;SDS011;3098;42.678;23.364;2023-04-30T09:50:52;6.72;;;3.80;;
6133;SDS011;3098;42.678;23.364;2023-04-30T09:53:20;6.57;;;4.15;;
6133;SDS011;3098;42.678;23.364;2023-04-30T09:55:50;7.65;;;3.33;;
6133;SDS011;3098;42.678;23.364;2023-04-30T09:58:18;5.28;;;3.60;;
6133;SDS011;3098;42.678;23.364;2023-04-30T10:00:45;4.20;;;3.22;;
6133;SDS011;3098;42.678;23.364;2023-04-30T10:03:14;6.68;;;3.47;;
6133;SDS011;3098;42.678;23.364;2023-04-30T10:05:43;8.40;;;3.70;;
6133;SDS011;3098;42.678;23.364;2023-04-30T10:08:14;3.90;;;2.80;;
6133;SDS011;3098;42.678;23.364;2023-04-30T10:10:48;5.65;;;3.70;;
6133;SDS011;3098;42.678;23.364;2023-04-30T10:13:21;8.57;;;3.97;;
6133;SDS011;3098;42.678;23.364;2023-04-30T10:15:57;7.68;;;3.60;;
6133;SDS011;3098;42.678;23.364;2023-04-30T10:18:30;5.28;;;3.17;;
6133;SDS011;3098;42.678;23.364;2023-04-30T10:21:00;4.43;;;3.20;;
6133;SDS011;3098;42.678;23.364;2023-04-30T10:23:36;7.57;;;3.35;;
6133;SDS011;3098;42.678;23.364;2023-04-30T10:26:08;4.53;;;3.20;;
6133;SDS011;3098;42.678;23.364;2023-04-30T10:28:38;9.38;;;3.60;;
6133;SDS011;3098;42.678;23.364;2023-04-30T10:31:05;4.38;;;2.78;;
6133;SDS011;3098;42.678;23.364;2023-04-30T10:33:36;9.98;;;3.08;;
6133;SDS011;3098;42.678;23.364;2023-04-30T10:36:16;9.95;;;3.35;;
6133;SDS011;3098;42.678;23.364;2023-04-30T10:38:49;6.15;;;3.03;;
6133;SDS011;3098;42.678;23.364;2023-04-30T10:41:20;6.05;;;3.33;;
6133;SDS011;3098;42.678;23.364;2023-04-30T10:43:49;4.20;;;2.88;;
6133;SDS011;3098;42.678;23.364;2023-04-30T10:46:22;4.25;;;3.20;;
6133;SDS011;3098;42.678;23.364;2023-04-30T10:48:51;5.70;;;3.33;;
6133;SDS011;3098;42.678;23.364;2023-04-30T10:51:19;8.80;;;4.00;;
6133;SDS011;3098;42.678;23.364;2023-04-30T10:53:48;4.88;;;3.45;;
6133;SDS011;3098;42.678;23.364;2023-04-30T10:56:31;6.60;;;3.75;;
6133;SDS011;3098;42.678;23.364;2023-04-30T10:59:00;4.72;;;3.47;;
6133;SDS011;3098;42.678;23.364;2023-04-30T11:01:27;4.55;;;3.00;;
6133;SDS011;3098;42.678;23.364;2023-04-30T11:04:05;5.00;;;3.67;;
6133;SDS011;3098;42.678;23.364;2023-04-30T11:09:23;3.85;;;2.90;;
6133;SDS011;3098;42.678;23.364;2023-04-30T11:12:13;9.45;;;3.47;;
6133;SDS011;3098;42.678;23.364;2023-04-30T11:14:42;6.50;;;3.67;;
6133;SDS011;3098;42.678;23.364;2023-04-30T11:17:10;9.48;;;2.78;;
6133;SDS011;3098;42.678;23.364;2023-04-30T11:19:45;4.75;;;3.17;;
6133;SDS011;3098;42.678;23.364;2023-04-30T11:22:14;4.30;;;3.08;;
6133;SDS011;3098;42.678;23.364;2023-04-30T11:24:52;4.70;;;2.90;;
6133;SDS011;3098;42.678;23.364;2023-04-30T11:27:25;4.53;;;3.22;;
6133;SDS011;3098;42.678;23.364;2023-04-30T11:29:53;4.45;;;2.55;;
6133;SDS011;3098;42.678;23.364;2023-04-30T11:32:22;5.72;;;2.40;;
6133;SDS011;3098;42.678;23.364;2023-04-30T11:34:50;3.83;;;2.65;;
6133;SDS011;3098;42.678;23.364;2023-04-30T11:37:18;5.68;;;2.80;;
6133;SDS011;3098;42.678;23.364;2023-04-30T11:39:46;3.70;;;2.78;;
6133;SDS011;3098;42.678;23.364;2023-04-30T11:42:17;4.25;;;2.95;;
6133;SDS011;3098;42.678;23.364;2023-04-30T11:44:48;4.70;;;3.03;;
6133;SDS011;3098;42.678;23.364;2023-04-30T11:47:16;6.18;;;3.20;;
6133;SDS011;3098;42.678;23.364;2023-04-30T11:49:43;5.57;;;3.47;;
6133;SDS011;3098;42.678;23.364;2023-04-30T11:52:11;5.75;;;3.38;;
6133;SDS011;3098;42.678;23.364;2023-04-30T11:54:39;4.40;;;2.90;;
6133;SDS011;3098;42.678;23.364;2023-04-30T11:57:06;5.32;;;3.50;;
6133;SDS011;3098;42.678;23.364;2023-04-30T11:59:39;5.25;;;3.70;;
6133;SDS011;3098;42.678;23.364;2023-04-30T12:02:09;7.10;;;3.20;;
6133;SDS011;3098;42.678;23.364;2023-04-30T12:04:41;6.18;;;3.50;;
6133;SDS011;3098;42.678;23.364;2023-04-30T12:07:08;5.72;;;3.50;;
6133;SDS011;3098;42.678;23.364;2023-04-30T12:09:50;6.07;;;3.42;;
6133;SDS011;3098;42.678;23.364;2023-04-30T12:12:25;4.40;;;2.78;;
6133;SDS011;3098;42.678;23.364;2023-04-30T12:14:53;5.57;;;3.45;;
6133;SDS011;3098;42.678;23.364;2023-04-30T12:17:32;4.60;;;2.90;;
6133;SDS011;3098;42.678;23.364;2023-04-30T12:19:59;4.35;;;2.80;;
6133;SDS011;3098;42.678;23.364;2023-04-30T12:22:31;4.80;;;3.15;;
6133;SDS011;3098;42.678;23.364;2023-04-30T12:24:59;5.32;;;2.85;;
6133;SDS011;3098;42.678;23.364;2023-04-30T12:27:31;5.38;;;3.20;;
6133;SDS011;3098;42.678;23.364;2023-04-30T12:30:00;6.22;;;3.63;;
6133;SDS011;3098;42.678;23.364;2023-04-30T12:32:28;4.53;;;3.38;;
6133;SDS011;3098;42.678;23.364;2023-04-30T12:34:59;4.05;;;3.08;;
6133;SDS011;3098;42.678;23.364;2023-04-30T12:37:29;6.00;;;2.88;;
6133;SDS011;3098;42.678;23.364;2023-04-30T12:39:56;8.10;;;3.60;;
6133;SDS011;3098;42.678;23.364;2023-04-30T12:42:24;5.25;;;3.03;;
6133;SDS011;3098;42.678;23.364;2023-04-30T12:44:59;5.47;;;2.95;;
6133;SDS011;3098;42.678;23.364;2023-04-30T12:47:29;4.57;;;3.40;;
6133;SDS011;3098;42.678;23.364;2023-04-30T12:49:57;6.10;;;3.40;;
6133;SDS011;3098;42.678;23.364;2023-04-30T12:52:26;7.35;;;3.42;;
6133;SDS011;3098;42.678;23.364;2023-04-30T12:54:54;8.73;;;3.10;;
6133;SDS011;3098;42.678;23.364;2023-04-30T12:57:22;4.55;;;3.15;;
6133;SDS011;3098;42.678;23.364;2023-04-30T12:59:56;5.50;;;3.40;;
6133;SDS011;3098;42.678;23.364;2023-04-30T13:02:26;8.25;;;3.30;;
6133;SDS011;3098;42.678;23.364;2023-04-30T13:04:56;6.80;;;3.08;;
6133;SDS011;3098;42.678;23.364;2023-04-30T13:07:24;7.97;;;3.25;;
6133;SDS011;3098;42.678;23.364;2023-04-30T13:09:52;4.90;;;3.08;;
6133;SDS011;3098;42.678;23.364;2023-04-30T13:12:19;5.68;;;2.97;;
6133;SDS011;3098;42.678;23.364;2023-04-30T13:14:46;3.78;;;2.75;;
6133;SDS011;3098;42.678;23.364;2023-04-30T13:17:13;6.00;;;2.95;;
6133;SDS011;3098;42.678;23.364;2023-04-30T13:19:41;3.47;;;2.70;;
6133;SDS011;3098;42.678;23.364;2023-04-30T13:22:09;3.45;;;2.88;;
6133;SDS011;3098;42.678;23.364;2023-04-30T13:24:39;4.10;;;2.75;;
6133;SDS011;3098;42.678;23.364;2023-04-30T13:27:06;7.13;;;3.50;;
6133;SDS011;3098;42.678;23.364;2023-04-30T13:29:34;4.75;;;2.97;;
6133;SDS011;3098;42.678;23.364;2023-04-30T13:32:01;4.22;;;3.05;;
6133;SDS011;3098;42.678;23.364;2023-04-30T13:34:30;4.68;;;2.85;;
6133;SDS011;3098;42.678;23.364;2023-04-30T13:36:57;4.15;;;3.17;;
6133;SDS011;3098;42.678;23.364;2023-04-30T13:39:25;6.18;;;3.20;;
6133;SDS011;3098;42.678;23.364;2023-04-30T13:41:54;5.90;;;3.47;;
6133;SDS011;3098;42.678;23.364;2023-04-30T13:44:21;3.97;;;2.80;;
6133;SDS011;3098;42.678;23.364;2023-04-30T13:46:50;6.00;;;2.72;;
6133;SDS011;3098;42.678;23.364;2023-04-30T13:49:17;4.22;;;2.80;;
6133;SDS011;3098;42.678;23.364;2023-04-30T13:51:44;7.10;;;3.67;;
6133;SDS011;3098;42.678;23.364;2023-04-30T13:54:12;3.55;;;2.60;;
6133;SDS011;3098;42.678;23.364;2023-04-30T13:56:40;7.57;;;4.30;;
6133;SDS011;3098;42.678;23.364;2023-04-30T13:59:10;19.23;;;9.40;;
6133;SDS011;3098;42.678;23.364;2023-04-30T14:01:38;5.40;;;3.00;;
6133;SDS011;3098;42.678;23.364;2023-04-30T14:04:05;4.35;;;2.60;;
6133;SDS011;3098;42.678;23.364;2023-04-30T14:06:33;4.07;;;2.80;;
6133;SDS011;3098;42.678;23.364;2023-04-30T14:09:04;4.32;;;2.90;;
6133;SDS011;3098;42.678;23.364;2023-04-30T14:11:31;4.82;;;2.78;;
6133;SDS011;3098;42.678;23.364;2023-04-30T14:13:58;2.92;;;2.53;;
6133;SDS011;3098;42.678;23.364;2023-04-30T14:16:28;4.13;;;2.42;;
6133;SDS011;3098;42.678;23.364;2023-04-30T14:18:57;6.28;;;2.70;;
6133;SDS011;3098;42.678;23.364;2023-04-30T14:21:24;3.53;;;2.63;;
6133;SDS011;3098;42.678;23.364;2023-04-30T14:23:51;3.35;;;2.30;;
6133;SDS011;3098;42.678;23.364;2023-04-30T14:26:19;4.38;;;2.80;;
6133;SDS011;3098;42.678;23.364;2023-04-30T14:28:47;6.30;;;3.78;;
6133;SDS011;3098;42.678;23.364;2023-04-30T14:31:15;7.20;;;3.00;;
6133;SDS011;3098;42.678;23.364;2023-04-30T14:33:44;3.67;;;2.47;;
6133;SDS011;3098;42.678;23.364;2023-04-30T14:36:13;4.13;;;2.60;;
6133;SDS011;3098;42.678;23.364;2023-04-30T14:38:41;4.63;;;2.67;;
6133;SDS011;3098;42.678;23.364;2023-04-30T14:41:11;3.92;;;2.80;;
6133;SDS011;3098;42.678;23.364;2023-04-30T14:43:38;4.35;;;3.00;;
6133;SDS011;3098;42.678;23.364;2023-04-30T14:46:07;7.90;;;2.65;;
6133;SDS011;3098;42.678;23.364;2023-04-30T14:48:34;3.92;;;2.55;;
6133;SDS011;3098;42.678;23.364;2023-04-30T14:51:04;5.05;;;3.03;;
6133;SDS011;3098;42.678;23.364;2023-04-30T14:53:32;4.47;;;2.72;;
6133;SDS011;3098;42.678;23.364;2023-04-30T14:56:03;4.18;;;2.80;;
6133;SDS011;3098;42.678;23.364;2023-04-30T14:58:33;4.53;;;2.42;;
6133;SDS011;3098;42.678;23.364;2023-04-30T15:01:03;22.25;;;11.15;;
6133;SDS011;3098;42.678;23.364;2023-04-30T15:03:32;5.78;;;3.00;;
6133;SDS011;3098;42.678;23.364;2023-04-30T15:06:03;3.47;;;2.50;;